Time;durP1;ratioP1;P1;durP2;ratioP2;P2;SDS_P1;SDS_P2;PMS_P1;PMS_P2;Temp;Humidity;BMP_temperature;BMP_pressure;BME280_temperature;BME280_humidity;BME280_pressure;Samples;Min_cycle;Max_cycle;Signal;HPM_P1;HPM_P2
2021/06/03 00:01:04;;;;;;;7.90;7.20;;;16.50;82.40;;;;;;5045610;28;20209;-68
2021/06/03 00:03:35;;;;;;;8.52;7.15;;;16.30;83.00;;;;;;5047145;28;20229;-69
2021/06/03 00:06:04;;;;;;;7.20;6.60;;;16.40;83.00;;;;;;5046438;28;20233;-68
2021/06/03 00:08:31;;;;;;;10.73;8.15;;;16.30;83.60;;;;;;5047241;28;20616;-69
2021/06/03 00:11:00;;;;;;;7.38;6.60;;;16.40;84.00;;;;;;5047088;28;20600;-68
2021/06/03 00:13:29;;;;;;;8.77;7.55;;;16.40;84.00;;;;;;5060276;28;20200;-68
2021/06/03 00:15:57;;;;;;;8.65;7.85;;;16.30;84.40;;;;;;5066751;28;20200;-68
2021/06/03 00:18:23;;;;;;;7.68;7.07;;;16.30;84.90;;;;;;5067014;28;20219;-68
2021/06/03 00:20:51;;;;;;;9.20;8.40;;;16.40;85.50;;;;;;5066934;28;20313;-68
2021/06/03 00:23:18;;;;;;;7.90;7.20;;;16.30;86.80;;;;;;5065956;28;20558;-68
2021/06/03 00:25:44;;;;;;;9.15;8.25;;;16.20;87.60;;;;;;5064689;28;20237;-69
2021/06/03 00:28:11;;;;;;;9.15;8.10;;;16.20;88.20;;;;;;5050506;28;20694;-68
2021/06/03 00:30:38;;;;;;;8.45;7.45;;;16.20;88.70;;;;;;5050825;28;20293;-68
2021/06/03 00:33:05;;;;;;;8.90;8.13;;;16.20;89.40;;;;;;5050674;28;20311;-68
2021/06/03 00:35:32;;;;;;;8.30;7.60;;;16.10;90.00;;;;;;5050786;28;20202;-69
2021/06/03 00:38:00;;;;;;;7.97;7.28;;;16.00;90.20;;;;;;5051054;28;20201;-69
2021/06/03 00:40:27;;;;;;;7.90;7.10;;;16.00;90.00;;;;;;5054917;28;20304;-69
2021/06/03 00:42:54;;;;;;;9.30;7.80;;;16.00;90.30;;;;;;5071016;28;20197;-69
2021/06/03 00:45:24;;;;;;;8.82;7.60;;;16.00;90.40;;;;;;5070584;28;20257;-69
2021/06/03 00:47:51;;;;;;;8.45;7.72;;;16.00;91.10;;;;;;5070993;28;20219;-69
2021/06/03 00:50:20;;;;;;;8.73;7.10;;;16.00;90.70;;;;;;5070546;28;20201;-68
2021/06/03 00:52:46;;;;;;;9.23;7.80;;;15.90;91.00;;;;;;5070769;28;20622;-69
2021/06/03 00:55:14;;;;;;;8.30;7.35;;;15.80;91.10;;;;;;5061185;28;20208;-69
2021/06/03 00:57:41;;;;;;;7.78;7.15;;;15.70;92.00;;;;;;5050685;28;20584;-69
2021/06/03 01:00:10;;;;;;;9.82;7.90;;;15.60;92.00;;;;;;5048403;28;20670;-69
2021/06/03 01:02:37;;;;;;;7.85;7.10;;;15.40;92.90;;;;;;5050570;28;20201;-68
2021/06/03 01:05:06;;;;;;;10.13;8.02;;;15.40;92.90;;;;;;5049001;28;20279;-69
2021/06/03 01:07:32;;;;;;;8.15;7.55;;;15.30;93.30;;;;;;5049834;28;20300;-69
2021/06/03 01:10:06;;;;;;;8.38;7.57;;;15.20;94.20;;;;;;5066930;28;20749;-68
2021/06/03 01:12:41;;;;;;;8.80;8.10;;;15.20;93.30;;;;;;5070176;28;20287;-68
2021/06/03 01:15:09;;;;;;;9.30;8.40;;;15.20;93.60;;;;;;5067998;28;20303;-68
2021/06/03 01:17:38;;;;;;;8.45;7.65;;;15.40;93.50;;;;;;5069610;28;20213;-69
2021/06/03 01:20:06;;;;;;;8.77;7.95;;;15.50;93.20;;;;;;5069715;28;20217;-68
2021/06/03 01:22:42;;;;;;;9.40;7.88;;;15.40;93.70;;;;;;5062007;28;20198;-69
2021/06/03 01:25:12;;;;;;;9.05;8.25;;;15.40;94.30;;;;;;5053578;28;20209;-68
2021/06/03 01:27:41;;;;;;;9.30;8.30;;;15.30;94.80;;;;;;5069445;28;20205;-68
2021/06/03 01:30:12;;;;;;;8.70;8.00;;;15.30;95.10;;;;;;5069530;28;20571;-68
2021/06/03 01:32:40;;;;;;;9.32;8.43;;;15.20;95.50;;;;;;5068572;28;20656;-67
2021/06/03 01:35:10;;;;;;;9.48;8.50;;;15.30;95.40;;;;;;5069177;28;20211;-68
2021/06/03 01:37:38;;;;;;;9.15;8.35;;;15.30;95.40;;;;;;5067913;28;20255;-69
2021/06/03 01:40:07;;;;;;;8.82;8.05;;;15.20;95.90;;;;;;5068908;28;20300;-68
2021/06/03 01:42:36;;;;;;;10.60;9.40;;;15.20;96.20;;;;;;5068077;28;20343;-69
2021/06/03 01:45:04;;;;;;;9.23;8.43;;;15.20;96.40;;;;;;5068786;28;20717;-69
2021/06/03 01:47:31;;;;;;;9.82;9.00;;;15.20;96.60;;;;;;5050952;28;20300;-68
2021/06/03 01:49:58;;;;;;;9.43;8.52;;;15.30;96.80;;;;;;5066020;28;20201;-68
2021/06/03 01:52:25;;;;;;;10.38;9.30;;;15.20;97.00;;;;;;5069250;28;20300;-69
2021/06/03 01:54:52;;;;;;;10.07;8.73;;;15.20;97.20;;;;;;5069013;28;20254;-69
2021/06/03 01:57:19;;;;;;;10.40;9.30;;;15.10;97.50;;;;;;5054507;28;20818;-69
2021/06/03 01:59:47;;;;;;;9.65;8.75;;;15.00;98.10;;;;;;5048499;28;20717;-68
2021/06/03 02:02:13;;;;;;;10.60;9.45;;;15.00;97.90;;;;;;5065566;28;20229;-68
2021/06/03 02:04:40;;;;;;;9.60;8.73;;;15.00;98.10;;;;;;5068666;28;21350;-68
2021/06/03 02:07:06;;;;;;;8.57;7.78;;;15.00;98.20;;;;;;5053018;28;20727;-68
2021/06/03 02:09:32;;;;;;;10.00;9.15;;;15.00;98.50;;;;;;5048789;28;20344;-68
2021/06/03 02:11:59;;;;;;;9.65;8.70;;;15.00;98.70;;;;;;5048547;28;20296;-69
2021/06/03 02:14:32;;;;;;;9.10;8.32;;;15.10;98.50;;;;;;5047887;28;20251;-68
2021/06/03 02:17:06;;;;;;;9.52;8.73;;;15.10;98.50;;;;;;5061328;28;20280;-69
2021/06/03 02:19:36;;;;;;;9.05;8.35;;;15.10;99.00;;;;;;5068550;28;20209;-69
2021/06/03 02:22:05;;;;;;;9.13;8.32;;;15.00;99.10;;;;;;5067768;28;20258;-69
2021/06/03 02:24:31;;;;;;;9.20;8.40;;;15.10;99.30;;;;;;5067430;28;20205;-69
2021/06/03 02:26:58;;;;;;;9.95;9.15;;;15.20;98.90;;;;;;5067979;28;20386;-68
2021/06/03 02:29:25;;;;;;;9.27;8.38;;;15.20;98.90;;;;;;5068671;28;20839;-69
2021/06/03 02:31:53;;;;;;;9.90;9.00;;;15.20;99.20;;;;;;5069566;28;20411;-67
2021/06/03 02:34:20;;;;;;;10.00;9.10;;;15.10;99.40;;;;;;5067192;28;20209;-68
2021/06/03 02:36:47;;;;;;;10.18;8.80;;;15.10;99.50;;;;;;5068447;28;20702;-70
2021/06/03 02:39:13;;;;;;;10.05;9.13;;;15.10;99.50;;;;;;5065422;28;20212;-69
2021/06/03 02:41:39;;;;;;;9.45;8.55;;;15.00;99.80;;;;;;5048383;28;20308;-68
2021/06/03 02:44:06;;;;;;;10.00;9.10;;;15.00;99.90;;;;;;5047478;28;21336;-69
2021/06/03 02:46:32;;;;;;;10.32;9.43;;;14.90;99.80;;;;;;5047282;28;20225;-68
2021/06/03 02:48:58;;;;;;;11.18;9.73;;;14.90;99.90;;;;;;5047742;28;20563;-68
2021/06/03 02:51:26;;;;;;;10.15;9.25;;;14.90;99.90;;;;;;5047758;28;20312;-69
2021/06/03 02:53:53;;;;;;;10.02;9.13;;;14.90;99.90;;;;;;5047379;28;20700;-69
2021/06/03 02:56:19;;;;;;;10.00;9.07;;;14.90;99.90;;;;;;5047846;28;20225;-69
2021/06/03 02:58:46;;;;;;;9.77;8.75;;;14.90;99.90;;;;;;5047959;28;20344;-69
2021/06/03 03:01:13;;;;;;;9.85;8.90;;;14.90;99.90;;;;;;5054986;28;20193;-67
2021/06/03 03:03:40;;;;;;;10.02;9.05;;;15.00;99.90;;;;;;5067602;28;20220;-68
2021/06/03 03:06:06;;;;;;;8.63;7.93;;;15.00;99.90;;;;;;5066741;28;20229;-69
2021/06/03 03:08:34;;;;;;;10.88;9.68;;;15.00;99.90;;;;;;5067927;28;20205;-69
2021/06/03 03:11:01;;;;;;;9.45;8.65;;;15.00;99.90;;;;;;5061147;28;20293;-68
2021/06/03 03:13:28;;;;;;;10.63;9.73;;;15.00;99.90;;;;;;5051814;28;20580;-68
2021/06/03 03:15:54;;;;;;;9.20;8.43;;;14.90;99.90;;;;;;5066175;28;20201;-69
2021/06/03 03:18:21;;;;;;;8.48;7.78;;;15.00;99.90;;;;;;5067491;28;20219;-68
2021/06/03 03:20:47;;;;;;;9.10;8.30;;;15.10;99.90;;;;;;5062964;28;20557;-68
2021/06/03 03:23:13;;;;;;;9.02;8.23;;;15.10;99.90;;;;;;5047632;28;20293;-69
2021/06/03 03:25:41;;;;;;;10.40;9.30;;;15.10;99.90;;;;;;5046229;28;20233;-68
2021/06/03 03:28:09;;;;;;;11.02;8.38;;;15.10;99.90;;;;;;5047780;28;20578;-68
2021/06/03 03:30:40;;;;;;;10.27;8.80;;;15.00;99.90;;;;;;5049993;28;20213;-68
2021/06/03 03:33:07;;;;;;;9.88;9.07;;;15.00;99.90;;;;;;5067290;28;20240;-68
2021/06/03 03:35:33;;;;;;;8.25;7.55;;;15.00;99.90;;;;;;5066459;28;20200;-68
2021/06/03 03:38:00;;;;;;;11.30;9.10;;;15.10;99.90;;;;;;5067122;28;20213;-68
2021/06/03 03:40:27;;;;;;;10.07;8.95;;;15.20;99.90;;;;;;5067105;28;20262;-68
2021/06/03 03:42:54;;;;;;;9.48;8.60;;;15.10;99.90;;;;;;5067317;28;20783;-69
2021/06/03 03:45:23;;;;;;;9.05;8.25;;;15.10;99.90;;;;;;5066281;28;20696;-68
2021/06/03 03:47:49;;;;;;;9.52;8.73;;;15.10;99.90;;;;;;5058850;28;20267;-68
2021/06/03 03:50:17;;;;;;;9.50;8.70;;;15.10;99.90;;;;;;5046858;28;20206;-68
2021/06/03 03:52:45;;;;;;;10.00;9.10;;;15.20;99.90;;;;;;5066157;28;20273;-69
2021/06/03 03:55:13;;;;;;;10.07;8.95;;;15.20;99.90;;;;;;5066159;28;20276;-69
2021/06/03 03:57:41;;;;;;;9.35;8.57;;;15.20;99.90;;;;;;5066570;28;20200;-69
2021/06/03 04:00:11;;;;;;;9.90;8.95;;;15.20;99.90;;;;;;5065568;28;20209;-69
2021/06/03 04:02:38;;;;;;;11.20;9.07;;;15.20;99.90;;;;;;5048566;28;20284;-69
2021/06/03 04:05:05;;;;;;;9.23;8.43;;;15.20;99.90;;;;;;5055624;28;20319;-68
2021/06/03 04:07:32;;;;;;;10.40;9.40;;;15.40;99.90;;;;;;5066373;28;20303;-68
2021/06/03 04:09:58;;;;;;;9.50;8.60;;;15.40;99.90;;;;;;5066907;28;20208;-69
2021/06/03 04:12:25;;;;;;;9.20;8.43;;;15.40;99.90;;;;;;5049345;28;20216;-69
2021/06/03 04:14:51;;;;;;;10.63;9.52;;;15.40;99.90;;;;;;5046229;28;20233;-69
2021/06/03 04:17:19;;;;;;;10.50;9.50;;;15.40;99.90;;;;;;5057286;28;20595;-68
2021/06/03 04:19:46;;;;;;;9.35;8.55;;;15.50;99.90;;;;;;5056291;28;20208;-69
2021/06/03 04:22:12;;;;;;;9.90;9.00;;;15.60;99.90;;;;;;5047130;28;20293;-68
2021/06/03 04:24:38;;;;;;;9.65;8.75;;;15.60;99.90;;;;;;5061691;28;20339;-68
2021/06/03 04:27:05;;;;;;;9.07;8.27;;;15.60;99.90;;;;;;5057207;28;20198;-69
2021/06/03 04:29:31;;;;;;;9.43;8.55;;;15.60;99.90;;;;;;5058228;28;20207;-68
2021/06/03 04:31:58;;;;;;;9.40;8.60;;;15.60;99.90;;;;;;5048131;28;20244;-69
2021/06/03 04:34:25;;;;;;;10.00;9.10;;;15.70;99.90;;;;;;5056499;28;20240;-69
2021/06/03 04:36:52;;;;;;;8.68;7.97;;;15.70;99.90;;;;;;5055311;28;20205;-68
2021/06/03 04:39:18;;;;;;;10.60;9.70;;;15.80;99.90;;;;;;5061814;28;20288;-69
2021/06/03 04:41:45;;;;;;;8.93;8.13;;;15.90;99.90;;;;;;5066456;28;20263;-69
2021/06/03 04:44:11;;;;;;;8.98;8.18;;;16.00;99.90;;;;;;5047760;28;20288;-69
2021/06/03 04:46:37;;;;;;;9.50;8.70;;;15.90;99.70;;;;;;5046118;28;20312;-68
2021/06/03 04:49:04;;;;;;;9.02;8.13;;;15.90;99.90;;;;;;5046163;28;20292;-68
2021/06/03 04:51:31;;;;;;;9.10;8.40;;;15.90;99.80;;;;;;5050200;28;20201;-69
2021/06/03 04:53:58;;;;;;;9.50;8.52;;;15.90;99.90;;;;;;5059783;28;20576;-69
2021/06/03 04:56:24;;;;;;;10.77;8.30;;;15.90;99.90;;;;;;5053826;28;20344;-69
2021/06/03 04:58:51;;;;;;;9.05;8.25;;;15.90;99.90;;;;;;5045060;28;20568;-69
2021/06/03 05:01:17;;;;;;;8.57;7.88;;;16.00;99.90;;;;;;5057326;28;20232;-68
2021/06/03 05:03:43;;;;;;;8.93;8.20;;;15.90;99.90;;;;;;5054191;28;20202;-69
2021/06/03 05:06:09;;;;;;;8.85;8.10;;;16.00;99.90;;;;;;5045753;28;20233;-69
2021/06/03 05:08:37;;;;;;;9.50;8.60;;;16.00;99.90;;;;;;5046278;28;20208;-68
2021/06/03 05:11:04;;;;;;;9.20;8.02;;;16.20;99.50;;;;;;5046044;28;20288;-70
2021/06/03 05:13:31;;;;;;;9.45;8.63;;;16.30;99.40;;;;;;5061005;28;20233;-69
2021/06/03 05:15:58;;;;;;;8.73;8.02;;;16.40;99.00;;;;;;5069695;28;20197;-70
2021/06/03 05:18:24;;;;;;;9.00;8.15;;;16.40;99.00;;;;;;5068970;28;20285;-69
2021/06/03 05:20:50;;;;;;;9.32;8.52;;;16.50;98.90;;;;;;5064281;28;20293;-68
2021/06/03 05:23:17;;;;;;;9.43;8.52;;;16.60;98.40;;;;;;5049815;28;20215;-70
2021/06/03 05:25:45;;;;;;;9.15;8.45;;;16.70;98.50;;;;;;5049109;28;20236;-68
2021/06/03 05:28:11;;;;;;;7.63;7.05;;;16.60;98.00;;;;;;5049612;28;20210;-69
2021/06/03 05:30:38;;;;;;;9.10;8.32;;;16.60;98.30;;;;;;5062682;28;20209;-69
2021/06/03 05:33:04;;;;;;;8.80;8.13;;;16.80;97.60;;;;;;5049615;28;20317;-68
2021/06/03 05:35:31;;;;;;;9.65;8.85;;;16.90;97.40;;;;;;5049539;28;20254;-68
2021/06/03 05:37:57;;;;;;;8.63;7.93;;;16.80;97.30;;;;;;5059531;28;20292;-70
2021/06/03 05:40:27;;;;;;;8.75;8.05;;;17.10;97.10;;;;;;5056852;28;20236;-68
2021/06/03 05:42:57;;;;;;;9.40;8.50;;;17.10;97.10;;;;;;5049490;28;20201;-68
2021/06/03 05:45:24;;;;;;;9.57;8.57;;;17.10;96.80;;;;;;5054524;28;20229;-69
2021/06/03 05:47:51;;;;;;;8.48;7.68;;;17.30;96.40;;;;;;5054219;28;20212;-69
2021/06/03 05:50:19;;;;;;;8.60;7.80;;;17.40;96.20;;;;;;5058079;28;20752;-68
2021/06/03 05:52:46;;;;;;;9.88;8.00;;;17.70;95.90;;;;;;5068359;28;20201;-69
2021/06/03 05:55:14;;;;;;;8.95;8.15;;;17.70;95.30;;;;;;5068623;28;20296;-68
2021/06/03 05:57:41;;;;;;;9.00;8.20;;;18.00;95.00;;;;;;5052519;28;20207;-69
2021/06/03 06:00:11;;;;;;;8.43;7.72;;;18.20;94.80;;;;;;5065211;28;20291;-68
2021/06/03 06:02:47;;;;;;;8.07;7.47;;;18.80;94.00;;;;;;5062382;28;20204;-69
2021/06/03 06:08:01;;;;;;;9.37;8.47;;;21.50;90.30;;;;;;5062178;28;20701;-69
2021/06/03 06:10:28;;;;;;;7.13;6.50;;;23.70;82.20;;;;;;5066135;28;20628;-68
2021/06/03 06:12:55;;;;;;;6.40;6.00;;;26.30;75.70;;;;;;5054214;28;20718;-68
2021/06/03 06:15:22;;;;;;;7.10;6.60;;;27.70;67.30;;;;;;5054151;28;20647;-68
2021/06/03 06:17:49;;;;;;;7.07;6.57;;;27.80;64.30;;;;;;5057915;28;20638;-68
2021/06/03 06:20:15;;;;;;;7.10;6.50;;;26.60;67.60;;;;;;5063795;28;20992;-68
2021/06/03 06:22:42;;;;;;;7.63;7.13;;;25.50;70.40;;;;;;5064170;28;20631;-68
2021/06/03 06:25:10;;;;;;;7.40;6.90;;;23.50;74.80;;;;;;5064537;28;20661;-69
2021/06/03 06:27:36;;;;;;;8.40;7.60;;;22.90;77.50;;;;;;5065511;28;20651;-68
2021/06/03 06:30:06;;;;;;;7.90;7.23;;;22.70;78.00;;;;;;5059406;28;20632;-67
2021/06/03 06:32:33;;;;;;;7.60;7.00;;;21.90;80.10;;;;;;5050806;28;20743;-68
2021/06/03 06:35:00;;;;;;;8.63;7.93;;;21.50;82.60;;;;;;5063342;28;20631;-69
2021/06/03 06:37:26;;;;;;;9.17;8.23;;;20.80;84.10;;;;;;5063879;28;20726;-69
2021/06/03 06:39:52;;;;;;;9.27;8.57;;;20.40;86.60;;;;;;5065579;28;20633;-69
2021/06/03 06:42:19;;;;;;;9.20;8.50;;;20.10;87.30;;;;;;5058716;28;20632;-68
2021/06/03 06:44:45;;;;;;;8.47;7.67;;;19.80;89.30;;;;;;5065994;28;21069;-69
2021/06/03 06:47:11;;;;;;;9.07;8.17;;;19.90;88.90;;;;;;5065963;28;20719;-69
2021/06/03 06:49:39;;;;;;;9.03;7.90;;;19.80;89.40;;;;;;5056950;28;20635;-68
2021/06/03 06:52:06;;;;;;;8.00;7.45;;;19.80;90.10;;;;;;5065148;28;20642;-69
2021/06/03 06:54:32;;;;;;;9.10;8.30;;;19.80;90.20;;;;;;5060485;28;20288;-69
2021/06/03 06:56:59;;;;;;;8.25;7.65;;;19.50;90.30;;;;;;5064118;28;20529;-70
2021/06/03 06:59:25;;;;;;;9.77;8.07;;;19.20;90.30;;;;;;5063875;28;20288;-67
2021/06/03 07:01:51;;;;;;;8.98;8.18;;;18.90;91.00;;;;;;5058751;28;20203;-67
2021/06/03 07:04:18;;;;;;;9.80;9.00;;;18.50;92.20;;;;;;5059350;28;20205;-67
2021/06/03 07:06:45;;;;;;;9.35;8.55;;;18.50;92.30;;;;;;5046849;28;20651;-67
2021/06/03 07:09:12;;;;;;;8.52;7.80;;;18.50;92.70;;;;;;5054774;28;20202;-69
2021/06/03 07:11:38;;;;;;;8.48;7.85;;;18.60;92.60;;;;;;5061943;28;20220;-68
2021/06/03 07:14:05;;;;;;;11.55;8.18;;;18.70;93.00;;;;;;5065039;28;20239;-68
2021/06/03 07:16:31;;;;;;;8.45;7.75;;;19.00;92.70;;;;;;5059775;28;20206;-68
2021/06/03 07:18:58;;;;;;;8.82;8.13;;;19.10;92.50;;;;;;5061681;28;20201;-68
2021/06/03 07:21:24;;;;;;;9.40;8.60;;;19.20;92.40;;;;;;5059351;28;20288;-69
2021/06/03 07:23:52;;;;;;;9.13;8.20;;;19.30;92.60;;;;;;5054161;28;20538;-69
2021/06/03 07:26:18;;;;;;;9.32;8.52;;;19.20;92.50;;;;;;5062818;28;20221;-69
2021/06/03 07:28:46;;;;;;;8.23;7.60;;;19.20;92.40;;;;;;5057187;28;20201;-68
2021/06/03 07:31:13;;;;;;;9.02;8.05;;;19.30;93.30;;;;;;5061917;28;20220;-69
2021/06/03 07:33:39;;;;;;;8.88;8.15;;;19.50;93.20;;;;;;5062648;28;20680;-69
2021/06/03 07:36:08;;;;;;;7.80;7.20;;;19.70;94.00;;;;;;5064115;28;20306;-69
2021/06/03 07:38:34;;;;;;;11.15;7.80;;;19.80;93.30;;;;;;5056234;28;20205;-69
2021/06/03 07:41:02;;;;;;;8.07;7.38;;;20.20;92.90;;;;;;5056505;28;20296;-68
2021/06/03 07:43:29;;;;;;;8.33;7.63;;;20.40;92.20;;;;;;5061673;28;20207;-69
2021/06/03 07:45:55;;;;;;;8.10;7.50;;;20.30;91.90;;;;;;5057008;28;20670;-67
2021/06/03 07:48:22;;;;;;;8.77;8.07;;;20.40;91.70;;;;;;5059099;28;20628;-67
2021/06/03 07:50:49;;;;;;;8.40;7.70;;;20.70;91.50;;;;;;5064582;28;21276;-68
2021/06/03 07:53:15;;;;;;;9.43;8.53;;;20.70;91.30;;;;;;5060602;28;20623;-66
2021/06/03 07:55:42;;;;;;;8.60;7.70;;;21.00;91.30;;;;;;5060798;28;20646;-67
2021/06/03 07:58:12;;;;;;;7.93;7.33;;;21.40;91.10;;;;;;5051589;28;20727;-67
2021/06/03 08:00:42;;;;;;;8.37;7.67;;;21.40;90.70;;;;;;5063843;28;20630;-66
2021/06/03 08:03:09;;;;;;;8.33;7.73;;;21.00;90.50;;;;;;5056008;28;20636;-68
2021/06/03 08:05:35;;;;;;;8.30;7.70;;;20.90;91.10;;;;;;5059829;28;20721;-69
2021/06/03 08:08:03;;;;;;;9.03;8.30;;;20.80;91.20;;;;;;5065056;28;20709;-67
2021/06/03 08:10:31;;;;;;;8.63;7.83;;;21.20;91.00;;;;;;5063606;28;20638;-68
2021/06/03 08:12:58;;;;;;;8.27;7.67;;;21.20;91.00;;;;;;5057519;28;20623;-67
2021/06/03 08:15:28;;;;;;;9.87;9.07;;;21.20;91.10;;;;;;5062949;28;21009;-67
2021/06/03 08:17:55;;;;;;;9.30;8.60;;;21.50;90.80;;;;;;5059788;28;20639;-69
2021/06/03 08:20:24;;;;;;;8.00;7.40;;;22.40;90.00;;;;;;5057841;28;20642;-67
2021/06/03 08:22:50;;;;;;;7.70;7.10;;;23.00;88.50;;;;;;5065502;28;20643;-69
2021/06/03 08:25:19;;;;;;;7.90;7.30;;;23.40;86.70;;;;;;5065292;28;20677;-70
2021/06/03 08:27:46;;;;;;;7.50;6.80;;;24.00;85.20;;;;;;5063827;28;20719;-67
2021/06/03 08:30:15;;;;;;;7.23;6.63;;;24.30;83.90;;;;;;5064017;28;21188;-67
2021/06/03 08:32:45;;;;;;;6.97;6.47;;;25.30;81.30;;;;;;5051203;28;20664;-69
2021/06/03 08:35:14;;;;;;;7.40;6.90;;;25.40;80.70;;;;;;5064412;28;20639;-68
2021/06/03 08:37:42;;;;;;;6.30;5.70;;;24.90;81.80;;;;;;5064879;28;20638;-69
2021/06/03 08:40:11;;;;;;;6.90;6.40;;;25.50;81.40;;;;;;5058355;28;21054;-69
2021/06/03 08:42:38;;;;;;;6.40;5.90;;;26.20;79.50;;;;;;5064565;28;20723;-69
2021/06/03 08:45:06;;;;;;;6.77;6.30;;;27.20;78.00;;;;;;5062183;28;20641;-68
2021/06/03 08:47:33;;;;;;;7.23;5.83;;;27.20;76.30;;;;;;5067795;28;20702;-69
2021/06/03 08:50:03;;;;;;;7.23;6.63;;;26.90;76.60;;;;;;5068737;28;20628;-68
2021/06/03 08:52:29;;;;;;;5.77;5.27;;;26.10;78.10;;;;;;5068418;28;20643;-68
2021/06/03 08:55:00;;;;;;;7.23;6.63;;;25.90;79.70;;;;;;5067525;28;20631;-68
2021/06/03 08:57:26;;;;;;;7.10;6.50;;;26.10;79.60;;;;;;5066032;28;20686;-68
2021/06/03 08:59:53;;;;;;;6.60;6.13;;;26.20;77.60;;;;;;5061135;28;20641;-68
2021/06/03 09:02:19;;;;;;;6.97;6.37;;;26.90;76.40;;;;;;5068774;28;20702;-69
2021/06/03 09:04:46;;;;;;;8.13;7.00;;;26.90;74.70;;;;;;5065109;28;20659;-69
2021/06/03 09:07:31;;;;;;;6.23;5.83;;;27.00;74.60;;;;;;5062571;28;21284;-69
2021/06/03 09:09:57;;;;;;;6.33;5.93;;;27.60;74.00;;;;;;5063535;28;20640;-68
2021/06/03 09:12:24;;;;;;;5.77;5.43;;;28.30;72.90;;;;;;5066518;28;20633;-68
2021/06/03 09:15:15;;;;;;;5.90;5.50;;;29.10;71.90;;;;;;5067801;28;20610;-68
2021/06/03 09:17:45;;;;;;;5.57;5.07;;;29.60;69.60;;;;;;5065545;28;20616;-68
2021/06/03 09:20:12;;;;;;;5.47;5.07;;;30.20;64.80;;;;;;5060986;28;20637;-69
2021/06/03 09:22:41;;;;;;;5.53;5.03;;;30.20;66.00;;;;;;5061598;28;20627;-69
2021/06/03 09:25:37;;;;;;;5.13;4.83;;;30.40;65.40;;;;;;5062470;28;21209;-69
2021/06/03 09:28:21;;;;;;;4.80;4.50;;;30.70;63.40;;;;;;5057711;28;21250;-68
2021/06/03 09:31:06;;;;;;;4.87;4.47;;;31.00;61.80;;;;;;5054623;28;21273;-69
2021/06/03 09:33:51;;;;;;;5.27;4.87;;;30.60;62.80;;;;;;5063020;28;20635;-68
2021/06/03 09:36:27;;;;;;;6.33;5.20;;;30.20;64.10;;;;;;5062114;28;20733;-69
2021/06/03 09:39:12;;;;;;;4.70;4.40;;;29.60;65.30;;;;;;5062541;28;20616;-69
2021/06/03 09:41:41;;;;;;;5.67;5.27;;;29.10;65.20;;;;;;5066123;28;20671;-68
2021/06/03 09:44:14;;;;;;;4.93;4.53;;;29.00;67.20;;;;;;5059524;28;20723;-69
2021/06/03 09:46:43;;;;;;;4.60;4.30;;;28.80;67.10;;;;;;5066373;28;20665;-68
2021/06/03 09:49:16;;;;;;;5.40;4.30;;;29.10;65.40;;;;;;5066197;28;20670;-69
2021/06/03 09:51:44;;;;;;;4.60;4.30;;;30.20;63.50;;;;;;5066599;28;21003;-67
2021/06/03 09:54:13;;;;;;;4.60;4.33;;;30.80;62.20;;;;;;5054466;28;20716;-68
2021/06/03 09:56:41;;;;;;;4.77;4.47;;;30.30;60.70;;;;;;5059836;28;20743;-68
2021/06/03 09:59:12;;;;;;;4.80;4.40;;;29.60;63.90;;;;;;5064754;28;20840;-68
2021/06/03 10:01:50;;;;;;;6.07;4.60;;;29.80;62.90;;;;;;5064529;28;20635;-69
2021/06/03 10:04:18;;;;;;;5.07;4.67;;;29.80;64.40;;;;;;5068220;28;20665;-68
2021/06/03 10:06:59;;;;;;;4.60;4.40;;;29.90;61.80;;;;;;5062113;28;20691;-68
2021/06/03 10:09:49;;;;;;;4.90;4.50;;;30.00;63.10;;;;;;5059167;28;20712;-69
2021/06/03 10:12:43;;;;;;;5.20;4.80;;;30.10;63.10;;;;;;5056301;28;20671;-68
2021/06/03 10:15:43;;;;;;;5.00;4.60;;;29.70;63.10;;;;;;5064218;28;20625;-68
2021/06/03 10:18:11;;;;;;;4.70;4.40;;;28.90;64.20;;;;;;5050401;28;20635;-67
2021/06/03 10:20:40;;;;;;;5.20;4.80;;;28.30;65.00;;;;;;5060993;28;21403;-69
2021/06/03 10:23:08;;;;;;;5.27;4.77;;;28.60;64.80;;;;;;5060236;28;21044;-68
2021/06/03 10:25:37;;;;;;;3.90;3.70;;;28.30;65.80;;;;;;5061867;28;20631;-68
2021/06/03 10:28:06;;;;;;;5.40;5.00;;;28.80;68.90;;;;;;5064867;28;20627;-69
2021/06/03 10:30:36;;;;;;;4.43;4.13;;;28.60;66.40;;;;;;5055102;28;20607;-69
2021/06/03 10:33:05;;;;;;;3.93;3.73;;;28.80;65.50;;;;;;5054788;28;20701;-67
2021/06/03 10:35:34;;;;;;;4.97;4.47;;;28.90;64.90;;;;;;5052865;28;21229;-69
2021/06/03 10:38:04;;;;;;;4.33;4.07;;;28.80;65.30;;;;;;5060271;28;21505;-69
2021/06/03 10:40:33;;;;;;;4.67;4.37;;;28.70;65.70;;;;;;5057285;28;20727;-68
2021/06/03 10:43:01;;;;;;;4.13;3.83;;;28.90;66.70;;;;;;5056574;28;20700;-69
2021/06/03 10:45:30;;;;;;;5.20;4.50;;;28.50;65.40;;;;;;5058350;28;20639;-69
2021/06/03 10:47:57;;;;;;;4.97;4.57;;;27.90;67.80;;;;;;5060031;28;20966;-68
2021/06/03 10:50:26;;;;;;;5.07;4.67;;;27.80;66.60;;;;;;5063908;28;21218;-69
2021/06/03 10:52:53;;;;;;;4.80;4.50;;;27.10;67.70;;;;;;5058500;28;20648;-67
2021/06/03 10:55:28;;;;;;;4.57;4.17;;;27.10;68.70;;;;;;5059105;28;20634;-69
2021/06/03 10:57:57;;;;;;;5.20;4.83;;;27.00;69.90;;;;;;5064233;28;20719;-67
2021/06/03 11:00:29;;;;;;;4.43;4.13;;;26.80;69.30;;;;;;5061294;28;20701;-67
2021/06/03 11:02:58;;;;;;;4.60;4.20;;;26.60;70.60;;;;;;5056723;28;20724;-67
2021/06/03 11:05:27;;;;;;;4.27;3.97;;;26.50;70.30;;;;;;5054773;28;20644;-68
2021/06/03 11:07:54;;;;;;;4.77;4.47;;;26.10;73.70;;;;;;5057092;28;20671;-68
2021/06/03 11:10:31;;;;;;;4.47;4.17;;;25.90;76.30;;;;;;5056897;28;20624;-68
2021/06/03 11:13:17;;;;;;;4.10;3.80;;;26.40;74.70;;;;;;5060092;28;21261;-68
2021/06/03 11:16:07;;;;;;;4.53;4.23;;;26.90;75.00;;;;;;5058836;28;20672;-68
2021/06/03 11:18:59;;;;;;;4.50;4.13;;;26.80;73.70;;;;;;5058391;28;20634;-67
2021/06/03 11:21:48;;;;;;;5.10;4.70;;;26.70;72.20;;;;;;5052117;28;20704;-68
2021/06/03 11:24:40;;;;;;;4.23;4.03;;;27.30;70.30;;;;;;5052100;28;20632;-68
2021/06/03 11:27:08;;;;;;;4.27;4.00;;;27.70;68.30;;;;;;5049931;28;20680;-68
2021/06/03 11:29:40;;;;;;;4.40;4.03;;;27.80;67.70;;;;;;5062990;28;20729;-68
2021/06/03 11:32:20;;;;;;;4.63;4.33;;;27.70;68.70;;;;;;5059583;28;20641;-69
2021/06/03 11:34:49;;;;;;;4.17;3.87;;;28.10;67.00;;;;;;5057612;28;20739;-67
2021/06/03 11:37:18;;;;;;;4.50;4.20;;;28.00;69.20;;;;;;5056032;28;21074;-68
2021/06/03 11:39:46;;;;;;;4.43;4.00;;;28.40;66.70;;;;;;5056401;28;20636;-68
2021/06/03 11:42:34;;;;;;;4.10;3.80;;;28.30;66.70;;;;;;5057128;28;20730;-68
2021/06/03 11:45:24;;;;;;;4.20;3.90;;;27.90;67.90;;;;;;5051908;28;20677;-68
2021/06/03 11:48:23;;;;;;;3.80;2.87;;;27.80;68.40;;;;;;5059657;28;20724;-72
2021/06/03 11:51:03;;;;;;;3.40;2.87;;;27.70;67.50;;;;;;5060590;28;20626;-69
2021/06/03 11:53:31;;;;;;;2.40;2.20;;;27.30;69.00;;;;;;5054904;28;20634;-68
2021/06/03 11:56:09;;;;;;;2.13;2.03;;;27.60;68.90;;;;;;5053403;28;20731;-68
2021/06/03 11:58:50;;;;;;;2.53;2.37;;;28.10;67.30;;;;;;5058979;28;20632;-69
2021/06/03 12:01:39;;;;;;;1.90;1.80;;;28.20;66.00;;;;;;5053975;28;20610;-68
2021/06/03 12:04:20;;;;;;;2.20;1.87;;;27.50;66.00;;;;;;5058381;28;20675;-68
2021/06/03 12:06:49;;;;;;;2.40;2.20;;;27.10;65.90;;;;;;5056170;28;21342;-68
2021/06/03 12:09:37;;;;;;;2.23;2.03;;;27.00;66.90;;;;;;5059480;28;20639;-67
2021/06/03 12:12:06;;;;;;;2.63;2.43;;;26.70;68.70;;;;;;5051827;28;20639;-68
2021/06/03 12:14:40;;;;;;;2.50;2.40;;;26.30;73.20;;;;;;5054487;28;20715;-67
2021/06/03 12:17:08;;;;;;;2.30;2.20;;;27.00;71.40;;;;;;5060740;28;20626;-68
2021/06/03 12:19:38;;;;;;;2.53;2.33;;;27.40;70.10;;;;;;5064115;28;21461;-67
2021/06/03 12:22:07;;;;;;;2.33;2.23;;;27.40;69.30;;;;;;5057965;28;20637;-68
2021/06/03 12:24:36;;;;;;;2.33;2.13;;;27.20;68.10;;;;;;5061980;28;20734;-68
2021/06/03 12:27:04;;;;;;;2.30;2.10;;;26.90;68.70;;;;;;5058775;28;21129;-68
2021/06/03 12:29:32;;;;;;;2.97;2.77;;;26.30;69.70;;;;;;5051288;28;20632;-68
2021/06/03 12:31:58;;;;;;;3.70;2.80;;;26.10;69.70;;;;;;5062572;28;20734;-68
2021/06/03 12:34:27;;;;;;;2.43;2.30;;;25.80;72.90;;;;;;5064755;28;20631;-68
2021/06/03 12:36:56;;;;;;;2.60;2.40;;;25.60;72.20;;;;;;5062910;28;20653;-68
2021/06/03 12:39:22;;;;;;;2.50;2.30;;;24.80;73.40;;;;;;5062694;28;21191;-69
2021/06/03 12:41:52;;;;;;;2.10;2.00;;;24.40;74.90;;;;;;5059796;28;20634;-68
2021/06/03 12:44:21;;;;;;;2.50;2.30;;;23.90;76.00;;;;;;5057871;28;20719;-67
2021/06/03 12:46:51;;;;;;;2.37;2.00;;;23.20;78.70;;;;;;5056017;28;20685;-68
2021/06/03 12:49:21;;;;;;;2.97;2.77;;;23.20;78.90;;;;;;5052897;28;20628;-70
2021/06/03 12:51:50;;;;;;;2.40;2.30;;;23.10;79.80;;;;;;5060024;28;20660;-68
2021/06/03 12:54:27;;;;;;;1.97;1.87;;;23.20;81.30;;;;;;5061370;28;20638;-70
2021/06/03 12:56:54;;;;;;;2.40;2.17;;;23.50;79.70;;;;;;5054499;28;20716;-69
2021/06/03 12:59:23;;;;;;;2.20;2.10;;;23.70;81.70;;;;;;5060549;28;20727;-69